Maersk Cardiff — 9V7632 — position and weather

sailwx.info

Track history (hours):
 
Tides and Currents Weather Stations Pressure Air Temp Water Temp Dewpoint Dewpoint Depression Visibility Wind Speed Wind Dir Waves Ship Positions

Maersk Cardiff

Last reported at 2017-Dec-13 09:56 UTC. Time now 2017-Dec-17 02:40 UTC.
Position N 23°49' E 118°22'.

Length 249 m; draft 10.3 m.

Type: Ship (hazmat cat A). MMSI: 566756000.

Date/timePositionNaut miles runAvg speedWind from/ knotsBaromVisibWave heightAir tempDewpointWater temp
2017-Dec-13 09:56N 23°49' E 118°22'511.1
2017-Dec-13 09:30N 23°52' E 118°26'610.9
2017-Dec-13 09:00N 23°55' E 118°30'5 9.3
2017-Dec-13 08:29N 23°59' E 118°34'6 8.1
2017-Dec-13 07:46N 24°03' E 118°39'2 8.1
2017-Dec-13 07:29N 24°04' E 118°40'6 8.2
2017-Dec-13 06:47N 24°08' E 118°45'2 8.4
2017-Dec-13 06:29N 24°10' E 118°47'4 8.4
2017-Dec-13 05:59N 24°13' E 118°50'  
2017-Dec-09 02:55N 31°05' E 122°31'5 8.1
2017-Dec-09 02:20N 31°06' E 122°25'412.1
2017-Dec-09 01:59N 31°06' E 122°21'613.2
2017-Dec-09 01:30N 31°09' E 122°14'714.1
2017-Dec-09 01:00N 31°13' E 122°07'714.1
2017-Dec-09 00:30N 31°15' E 121°59'1114.5
2017-Dec-08 23:46N 31°18' E 121°47'5 0.3
2017-Dec-08 05:25N 31°16' E 121°53'410.8
2017-Dec-08 05:00N 31°15' E 121°58'611.4
2017-Dec-08 04:30N 31°14' E 122°05'611.5
2017-Dec-08 03:57N 31°11' E 122°11'5 8.0
2017-Dec-08 03:23N 31°08' E 122°15'3 8.1
2017-Dec-08 03:00N 31°06' E 122°18'5 9.2
2017-Dec-08 02:30N 31°06' E 122°23'712.6
2017-Dec-08 01:57N 31°07' E 122°32'35012.0
2017-Dec-06 20:45N 25°16' E 122°30'  
Track history (hours):
 
Tides and Currents Weather Stations Pressure Air Temp Water Temp Dewpoint Dewpoint Depression Visibility Wind Speed Wind Dir Waves Ship Positions

Maersk Cardiff

Last reported at 2017-Dec-13 09:56 UTC. Time now 2017-Dec-17 02:40 UTC.
Position N 23°49' E 118°22'.

Length 249 m; draft 10.3 m.

Type: Ship (hazmat cat A). MMSI: 566756000.

Date/timePositionNaut miles runAvg speedWind from/ knotsBaromVisibWave heightAir tempDewpointWater temp
2017-Dec-13 09:56N 23°49' E 118°22'511.1
2017-Dec-13 09:30N 23°52' E 118°26'610.9
2017-Dec-13 09:00N 23°55' E 118°30'5 9.3
2017-Dec-13 08:29N 23°59' E 118°34'6 8.1
2017-Dec-13 07:46N 24°03' E 118°39'2 8.1
2017-Dec-13 07:29N 24°04' E 118°40'6 8.2
2017-Dec-13 06:47N 24°08' E 118°45'2 8.4
2017-Dec-13 06:29N 24°10' E 118°47'4 8.4
2017-Dec-13 05:59N 24°13' E 118°50'  
2017-Dec-09 02:55N 31°05' E 122°31'5 8.1
2017-Dec-09 02:20N 31°06' E 122°25'412.1
2017-Dec-09 01:59N 31°06' E 122°21'613.2
2017-Dec-09 01:30N 31°09' E 122°14'714.1
2017-Dec-09 01:00N 31°13' E 122°07'714.1
2017-Dec-09 00:30N 31°15' E 121°59'1114.5
2017-Dec-08 23:46N 31°18' E 121°47'5 0.3
2017-Dec-08 05:25N 31°16' E 121°53'410.8
2017-Dec-08 05:00N 31°15' E 121°58'611.4
2017-Dec-08 04:30N 31°14' E 122°05'611.5
2017-Dec-08 03:57N 31°11' E 122°11'5 8.0
2017-Dec-08 03:23N 31°08' E 122°15'3 8.1
2017-Dec-08 03:00N 31°06' E 122°18'5 9.2
2017-Dec-08 02:30N 31°06' E 122°23'712.6
2017-Dec-08 01:57N 31°07' E 122°32'35012.0
2017-Dec-06 20:45N 25°16' E 122°30'  

Dump ship's entire track history